Time;durP1;ratioP1;P1;durP2;ratioP2;P2;SDS_P1;SDS_P2;PMS_P1;PMS_P2;Temp;Humidity;BMP_temperature;BMP_pressure;BME280_temperature;BME280_humidity;BME280_pressure;Samples;Min_cycle;Max_cycle;Signal;HPM_P1;HPM_P2
2021/05/17 00:01:50;;;;;;;2.70;0.90;;;12.80;99.90;;;;;;4955704;28;20180;-77
2021/05/17 00:04:16;;;;;;;1.20;0.70;;;12.80;99.90;;;;;;4939479;28;20226;-77
2021/05/17 00:06:42;;;;;;;2.35;0.63;;;12.90;99.90;;;;;;4955182;28;20204;-77
2021/05/17 00:09:09;;;;;;;1.60;0.68;;;12.90;99.90;;;;;;4972882;28;20171;-77
2021/05/17 00:11:35;;;;;;;2.10;0.80;;;13.00;99.90;;;;;;4955588;28;20182;-77
2021/05/17 00:14:00;;;;;;;1.27;0.80;;;13.10;99.90;;;;;;4972770;28;20730;-77
2021/05/17 00:16:29;;;;;;;1.30;0.70;;;13.10;99.90;;;;;;4972555;28;20255;-77
2021/05/17 00:18:56;;;;;;;1.35;0.82;;;13.10;99.90;;;;;;4939510;28;21149;-77
2021/05/17 00:21:21;;;;;;;1.30;0.60;;;13.10;99.90;;;;;;4955457;28;20183;-77
2021/05/17 00:23:47;;;;;;;1.83;0.70;;;13.10;99.90;;;;;;4972602;28;20195;-77
2021/05/17 00:26:14;;;;;;;1.40;0.70;;;13.20;99.90;;;;;;4972634;28;20575;-77
2021/05/17 00:28:39;;;;;;;1.40;0.75;;;13.20;99.90;;;;;;4972221;28;20659;-77
2021/05/17 00:31:05;;;;;;;1.90;1.10;;;13.20;99.90;;;;;;4963085;28;20841;-77
2021/05/17 00:33:31;;;;;;;1.88;0.80;;;13.20;99.90;;;;;;4912563;28;20937;-77
2021/05/17 00:35:58;;;;;;;1.30;0.80;;;13.30;99.90;;;;;;4962254;28;20270;-77
2021/05/17 00:38:23;;;;;;;1.70;0.80;;;13.30;99.90;;;;;;4942287;28;20185;-77
2021/05/17 00:40:49;;;;;;;1.70;0.80;;;13.30;99.90;;;;;;4947111;28;20234;-77
2021/05/17 00:43:24;;;;;;;1.60;0.80;;;13.30;99.90;;;;;;4955241;28;20924;-77
2021/05/17 00:45:50;;;;;;;1.88;0.70;;;13.30;99.90;;;;;;4959269;28;20163;-77
2021/05/17 00:48:16;;;;;;;1.20;0.70;;;13.30;99.90;;;;;;4975937;28;20199;-77
2021/05/17 00:50:42;;;;;;;2.35;0.90;;;13.40;99.90;;;;;;4943115;28;20950;-77
2021/05/17 00:53:08;;;;;;;1.83;0.70;;;13.30;99.90;;;;;;4958105;28;20176;-77
2021/05/17 00:55:34;;;;;;;2.00;0.70;;;13.40;99.90;;;;;;4943178;28;20591;-78
2021/05/17 00:58:01;;;;;;;1.58;0.70;;;13.40;99.90;;;;;;4967574;28;20625;-77
2021/05/17 01:00:27;;;;;;;1.42;0.70;;;13.40;99.90;;;;;;4976098;28;20266;-77
2021/05/17 01:02:57;;;;;;;1.10;0.60;;;13.40;99.90;;;;;;4942569;28;20214;-77
2021/05/17 01:05:42;;;;;;;2.75;0.60;;;13.40;99.90;;;;;;4961386;28;20198;-77
2021/05/17 01:08:13;;;;;;;1.20;0.60;;;13.40;99.90;;;;;;4958413;28;20219;-77
2021/05/17 01:10:44;;;;;;;1.45;0.60;;;13.40;99.90;;;;;;4958580;28;20172;-77
2021/05/17 01:13:11;;;;;;;1.10;0.60;;;13.40;99.90;;;;;;4975979;28;20178;-77
2021/05/17 01:15:39;;;;;;;1.45;0.68;;;13.40;99.90;;;;;;4942625;28;20168;-77
2021/05/17 01:18:05;;;;;;;1.30;0.60;;;13.40;99.90;;;;;;4975500;28;20231;-77
2021/05/17 01:20:33;;;;;;;1.10;0.60;;;13.30;99.90;;;;;;4958539;28;20202;-77
2021/05/17 01:23:29;;;;;;;1.10;0.50;;;13.30;99.90;;;;;;4975703;28;20659;-77
2021/05/17 01:25:57;;;;;;;1.10;0.52;;;13.40;99.90;;;;;;4958239;28;20218;-77
2021/05/17 01:28:27;;;;;;;1.00;0.52;;;13.40;99.90;;;;;;4958023;28;20614;-77
2021/05/17 01:30:58;;;;;;;1.25;0.55;;;13.30;99.90;;;;;;4958595;28;20555;-77
2021/05/17 01:33:30;;;;;;;1.08;0.52;;;13.30;99.90;;;;;;4975642;28;20184;-77
2021/05/17 01:35:58;;;;;;;2.17;0.57;;;13.30;99.90;;;;;;4958351;28;20609;-77
2021/05/17 01:38:25;;;;;;;1.40;0.60;;;13.30;99.90;;;;;;4958384;28;20629;-77
2021/05/17 01:40:53;;;;;;;1.42;0.68;;;13.30;99.90;;;;;;4942857;28;20184;-77
2021/05/17 01:43:21;;;;;;;3.05;0.98;;;13.30;99.90;;;;;;4958759;28;20614;-77
2021/05/17 01:45:48;;;;;;;4.22;0.70;;;13.30;99.90;;;;;;4975870;28;20175;-77
2021/05/17 01:48:14;;;;;;;1.38;0.70;;;13.30;99.90;;;;;;4958103;28;20207;-77
2021/05/17 01:50:41;;;;;;;1.67;0.70;;;13.30;99.90;;;;;;4958495;28;20231;-77
2021/05/17 01:53:07;;;;;;;3.17;0.70;;;13.30;99.90;;;;;;4942262;28;20176;-77
2021/05/17 01:55:34;;;;;;;2.78;0.75;;;13.40;99.90;;;;;;4944949;28;20591;-77
2021/05/17 01:58:22;;;;;;;2.40;0.90;;;13.40;99.90;;;;;;4967365;28;20295;-77
2021/05/17 02:00:50;;;;;;;2.30;0.75;;;13.40;99.90;;;;;;4942379;28;20175;-77
2021/05/17 02:03:16;;;;;;;1.30;0.70;;;13.40;99.90;;;;;;4957828;28;20214;-77
2021/05/17 02:05:46;;;;;;;2.37;0.77;;;13.50;99.90;;;;;;4957921;28;20172;-76
2021/05/17 02:08:15;;;;;;;1.30;0.60;;;13.50;99.90;;;;;;4957354;28;20622;-76
2021/05/17 02:10:44;;;;;;;1.20;0.60;;;13.50;99.90;;;;;;4957735;28;20203;-76
2021/05/17 02:13:17;;;;;;;1.25;0.50;;;13.50;99.90;;;;;;4957427;28;20183;-77
2021/05/17 02:15:45;;;;;;;3.15;0.60;;;13.50;99.90;;;;;;4941715;28;20195;-76
2021/05/17 02:18:12;;;;;;;1.20;0.60;;;13.60;99.90;;;;;;4957354;28;20171;-76
2021/05/17 02:20:41;;;;;;;1.10;0.60;;;13.60;99.90;;;;;;4957502;28;20172;-76
2021/05/17 02:23:10;;;;;;;3.90;2.45;;;13.60;99.90;;;;;;4974579;28;20168;-77
2021/05/17 02:25:47;;;;;;;1.33;0.60;;;13.60;99.90;;;;;;4974811;28;20542;-76
2021/05/17 02:28:15;;;;;;;1.10;0.50;;;13.60;99.90;;;;;;4974190;28;20211;-76
2021/05/17 02:30:42;;;;;;;1.50;0.60;;;13.60;99.90;;;;;;4941442;28;20192;-76
2021/05/17 02:33:09;;;;;;;1.27;0.50;;;13.70;99.90;;;;;;4957222;28;20171;-77
2021/05/17 02:35:38;;;;;;;0.90;0.40;;;13.70;99.90;;;;;;4957407;28;20217;-76
2021/05/17 02:38:05;;;;;;;1.10;0.47;;;13.70;99.90;;;;;;4925031;28;20274;-76
2021/05/17 02:40:35;;;;;;;1.20;0.52;;;13.70;99.90;;;;;;4957147;28;20213;-76
2021/05/17 02:43:06;;;;;;;2.05;0.68;;;13.70;99.90;;;;;;4957099;28;20192;-76
2021/05/17 02:45:42;;;;;;;1.10;0.50;;;13.70;99.90;;;;;;4941281;28;20602;-76
2021/05/17 02:48:09;;;;;;;1.20;0.60;;;13.70;99.90;;;;;;4956594;28;20210;-77
2021/05/17 02:50:44;;;;;;;1.52;0.50;;;13.70;99.90;;;;;;4956805;28;20183;-77
2021/05/17 02:53:35;;;;;;;1.10;0.55;;;13.70;99.90;;;;;;4973968;28;20167;-77
2021/05/17 02:56:12;;;;;;;1.00;0.50;;;13.70;99.90;;;;;;4955248;23;20219;-72
2021/05/17 02:58:45;;;;;;;1.15;0.60;;;13.70;99.90;;;;;;4962061;28;20616;-73
2021/05/17 03:01:20;;;;;;;1.63;0.68;;;13.60;99.90;;;;;;4968258;28;20207;-72
2021/05/17 03:03:51;;;;;;;1.40;0.70;;;13.60;99.90;;;;;;4993467;28;20207;-72
2021/05/17 03:06:22;;;;;;;1.20;0.60;;;13.50;99.90;;;;;;4958617;28;20195;-72
2021/05/17 03:09:01;;;;;;;1.17;0.57;;;13.50;99.90;;;;;;4993186;28;20171;-72
2021/05/17 03:11:40;;;;;;;1.80;0.60;;;13.40;99.90;;;;;;4993554;28;21105;-72
2021/05/17 03:14:13;;;;;;;1.17;0.70;;;13.30;99.90;;;;;;4976104;28;20167;-72
2021/05/17 03:16:45;;;;;;;1.58;0.60;;;13.30;99.90;;;;;;4975316;28;20202;-73
2021/05/17 03:19:12;;;;;;;1.38;0.55;;;13.30;99.90;;;;;;4993285;28;20262;-73
2021/05/17 03:21:39;;;;;;;1.17;0.60;;;13.20;99.90;;;;;;4975549;28;20301;-73
2021/05/17 03:24:06;;;;;;;3.15;0.60;;;13.20;99.90;;;;;;4993115;28;20163;-73
2021/05/17 03:26:35;;;;;;;1.35;0.70;;;13.20;99.90;;;;;;4992373;28;20207;-72
2021/05/17 03:29:02;;;;;;;2.65;0.60;;;13.20;99.90;;;;;;4975738;28;20601;-72
2021/05/17 03:31:28;;;;;;;2.03;0.60;;;13.10;99.90;;;;;;4975526;28;20665;-72
2021/05/17 03:33:57;;;;;;;1.50;0.80;;;13.10;99.90;;;;;;4992908;28;20167;-74
2021/05/17 03:36:22;;;;;;;2.13;0.70;;;13.10;99.90;;;;;;4992437;28;20681;-74
2021/05/17 03:38:48;;;;;;;2.10;0.70;;;13.10;99.90;;;;;;4992976;28;20177;-74
2021/05/17 03:41:14;;;;;;;1.07;0.53;;;13.00;99.90;;;;;;4992857;28;20199;-73
2021/05/17 03:43:39;;;;;;;1.50;0.70;;;13.00;99.90;;;;;;4992922;28;20175;-73
2021/05/17 03:46:05;;;;;;;1.53;0.60;;;13.00;99.90;;;;;;4992555;28;20195;-73
2021/05/17 03:48:31;;;;;;;1.50;0.70;;;13.00;99.90;;;;;;4992320;28;20274;-73
2021/05/17 03:51:00;;;;;;;1.50;0.70;;;13.00;99.90;;;;;;4993718;28;20570;-73
2021/05/17 03:53:26;;;;;;;2.25;0.70;;;13.10;99.90;;;;;;4992655;28;20510;-73
2021/05/17 03:55:52;;;;;;;1.30;0.70;;;13.10;99.90;;;;;;4992318;28;20197;-73
2021/05/17 03:58:18;;;;;;;2.00;0.70;;;13.10;99.90;;;;;;4992223;28;20628;-73
2021/05/17 04:00:45;;;;;;;1.65;0.80;;;13.10;99.90;;;;;;4992648;28;20205;-73
2021/05/17 04:03:16;;;;;;;1.30;0.60;;;13.10;99.90;;;;;;4975040;28;20171;-73
2021/05/17 04:13:51;;;;;;;1.80;0.82;;;13.10;99.90;;;;;;4974934;28;20163;-73
2021/05/17 04:16:17;;;;;;;1.30;0.60;;;13.10;99.90;;;;;;4992085;28;20215;-73
2021/05/17 04:18:45;;;;;;;1.20;0.63;;;13.10;99.90;;;;;;4974497;28;20171;-73
2021/05/17 04:21:11;;;;;;;1.83;0.70;;;13.10;99.90;;;;;;4975185;28;20171;-73
2021/05/17 04:23:36;;;;;;;2.13;0.80;;;13.20;99.90;;;;;;4992327;28;20193;-73
2021/05/17 04:26:02;;;;;;;3.57;0.90;;;13.20;99.90;;;;;;4992263;28;20644;-73
2021/05/17 04:28:28;;;;;;;1.57;0.80;;;13.20;99.90;;;;;;4974461;28;20206;-73
2021/05/17 04:30:53;;;;;;;1.43;0.70;;;13.30;99.90;;;;;;4992155;28;20167;-74
2021/05/17 04:33:19;;;;;;;1.30;0.60;;;13.30;99.90;;;;;;4992032;28;20174;-73
2021/05/17 04:35:45;;;;;;;1.47;0.77;;;13.30;99.90;;;;;;4974855;28;20284;-73
2021/05/17 04:38:10;;;;;;;2.30;0.90;;;13.40;99.90;;;;;;4974393;28;20171;-73
2021/05/17 04:40:36;;;;;;;1.17;0.70;;;13.40;99.90;;;;;;4974796;28;20517;-73
2021/05/17 04:43:02;;;;;;;3.10;0.70;;;13.60;99.90;;;;;;4974769;28;20199;-73
2021/05/17 04:45:28;;;;;;;3.53;0.80;;;13.60;99.90;;;;;;4974502;28;20532;-73
2021/05/17 04:47:54;;;;;;;3.80;1.20;;;13.70;99.90;;;;;;4974314;28;20716;-73
2021/05/17 04:50:20;;;;;;;2.38;0.90;;;13.80;99.90;;;;;;4974823;28;20167;-73
2021/05/17 04:52:47;;;;;;;1.67;0.90;;;13.80;99.90;;;;;;4992109;28;20643;-73
2021/05/17 04:55:13;;;;;;;4.03;1.20;;;13.80;99.90;;;;;;4974500;28;20430;-73
2021/05/17 04:57:38;;;;;;;2.70;0.85;;;13.90;99.90;;;;;;4991497;28;20208;-73
2021/05/17 05:00:07;;;;;;;2.57;1.10;;;13.90;99.90;;;;;;4991965;28;20175;-74
2021/05/17 05:02:33;;;;;;;1.20;0.70;;;14.00;99.90;;;;;;4991921;28;20175;-73
2021/05/17 05:04:59;;;;;;;2.15;0.70;;;14.10;99.90;;;;;;4991781;28;20171;-73
2021/05/17 05:07:24;;;;;;;1.70;0.73;;;14.10;99.90;;;;;;4991597;28;20193;-74
2021/05/17 05:09:50;;;;;;;2.13;0.70;;;14.20;99.90;;;;;;4991871;28;20167;-74
2021/05/17 05:12:16;;;;;;;2.13;0.83;;;14.20;99.90;;;;;;4992130;28;20174;-74
2021/05/17 05:14:42;;;;;;;1.20;0.70;;;14.30;99.90;;;;;;4991846;28;20167;-74
2021/05/17 05:17:08;;;;;;;1.92;0.75;;;14.30;99.90;;;;;;4991309;28;20195;-74
2021/05/17 05:19:34;;;;;;;2.40;0.73;;;14.40;99.90;;;;;;4991825;28;20183;-74
2021/05/17 05:21:59;;;;;;;1.20;0.60;;;14.50;99.90;;;;;;4974508;28;21171;-74
2021/05/17 05:24:25;;;;;;;1.50;0.70;;;14.60;99.90;;;;;;4992129;28;20207;-74
2021/05/17 05:29:40;;;;;;;1.40;0.60;;;14.70;99.90;;;;;;4992771;28;20207;-74
2021/05/17 05:34:45;;;;;;;2.10;0.70;;;14.70;99.90;;;;;;4995279;28;20193;-74
2021/05/17 05:37:10;;;;;;;1.88;0.80;;;14.70;99.90;;;;;;4977284;28;20309;-74
2021/05/17 05:39:36;;;;;;;1.90;0.77;;;14.80;99.90;;;;;;4978028;28;20270;-74
2021/05/17 05:42:02;;;;;;;1.77;0.73;;;14.80;99.90;;;;;;4995592;28;20222;-74
2021/05/17 05:44:28;;;;;;;4.30;2.25;;;14.80;99.90;;;;;;4995623;28;20302;-74
2021/05/17 05:46:54;;;;;;;3.53;0.73;;;14.90;99.90;;;;;;4995126;28;20297;-74
2021/05/17 05:49:24;;;;;;;2.63;0.80;;;14.90;99.90;;;;;;5001873;28;20643;-74
2021/05/17 05:51:50;;;;;;;1.30;0.70;;;15.00;99.90;;;;;;4993306;28;20187;-74
2021/05/17 05:54:17;;;;;;;1.38;0.65;;;15.00;99.90;;;;;;4984276;28;20186;-73
2021/05/17 05:56:42;;;;;;;1.97;0.77;;;15.10;99.90;;;;;;4973905;28;20266;-73
2021/05/17 05:59:08;;;;;;;2.47;0.60;;;15.20;99.90;;;;;;4975379;28;20957;-74
2021/05/17 06:01:34;;;;;;;1.50;0.70;;;15.30;99.90;;;;;;4975194;28;20609;-74
2021/05/17 06:03:59;;;;;;;2.73;1.30;;;15.40;99.90;;;;;;4975183;28;20206;-74
2021/05/17 06:06:25;;;;;;;2.27;0.83;;;15.60;99.90;;;;;;4974339;28;20238;-75
2021/05/17 06:08:51;;;;;;;2.90;0.60;;;15.60;99.90;;;;;;4974931;28;20176;-74
2021/05/17 06:11:17;;;;;;;1.80;0.70;;;15.80;99.90;;;;;;4957282;28;20741;-74
2021/05/17 06:13:44;;;;;;;3.53;0.83;;;15.90;99.90;;;;;;4974614;28;20575;-74
2021/05/17 06:16:11;;;;;;;2.00;0.70;;;16.00;99.90;;;;;;4974364;28;20702;-74
2021/05/17 06:18:37;;;;;;;2.00;0.70;;;16.10;99.90;;;;;;4956822;28;20591;-74
2021/05/17 06:21:03;;;;;;;1.97;0.60;;;16.20;99.90;;;;;;4961094;28;20690;-73
2021/05/17 06:23:30;;;;;;;1.40;0.70;;;16.30;99.90;;;;;;4974258;28;20587;-74
2021/05/17 06:25:57;;;;;;;2.73;0.60;;;16.20;99.90;;;;;;4957225;28;21107;-73
2021/05/17 06:28:24;;;;;;;2.00;0.70;;;16.30;99.90;;;;;;4973617;28;21258;-73
2021/05/17 06:30:57;;;;;;;2.33;1.17;;;16.30;99.90;;;;;;4979977;28;20586;-73
2021/05/17 06:33:23;;;;;;;2.00;0.90;;;16.30;99.90;;;;;;4973875;28;21176;-73
2021/05/17 06:35:55;;;;;;;4.30;1.10;;;16.40;99.90;;;;;;4975947;28;20668;-73
2021/05/17 06:38:22;;;;;;;1.40;0.70;;;16.50;99.90;;;;;;4987273;28;20622;-73
2021/05/17 06:40:48;;;;;;;2.30;0.90;;;16.60;99.90;;;;;;4940382;28;20571;-74
2021/05/17 06:43:14;;;;;;;1.70;1.20;;;16.70;99.90;;;;;;4973887;28;20555;-74
2021/05/17 06:45:41;;;;;;;3.33;1.40;;;16.90;99.90;;;;;;4973444;28;20610;-74
2021/05/17 06:48:07;;;;;;;1.30;0.87;;;17.00;99.90;;;;;;4971818;28;20626;-75
2021/05/17 06:50:33;;;;;;;1.57;0.60;;;17.10;99.90;;;;;;4993152;28;20562;-75
2021/05/17 06:52:59;;;;;;;1.83;0.60;;;17.20;99.90;;;;;;4975848;28;20559;-74
2021/05/17 06:55:32;;;;;;;1.50;0.70;;;17.40;99.90;;;;;;4975669;28;20562;-75
2021/05/17 06:58:04;;;;;;;1.77;0.60;;;17.50;99.90;;;;;;4976796;28;20657;-75
2021/05/17 07:00:31;;;;;;;1.20;0.50;;;17.70;99.90;;;;;;4992540;28;20569;-74
2021/05/17 07:03:02;;;;;;;1.10;0.60;;;17.80;99.90;;;;;;4992835;28;20673;-75
2021/05/17 07:05:28;;;;;;;2.43;0.73;;;17.90;99.90;;;;;;4977638;28;20577;-75
2021/05/17 07:13:05;;;;;;;1.80;0.60;;;18.00;99.90;;;;;;4993438;28;20562;-75
2021/05/17 07:15:31;;;;;;;1.00;0.40;;;18.10;99.90;;;;;;4976021;28;20682;-75
2021/05/17 07:17:56;;;;;;;4.10;0.60;;;18.10;99.90;;;;;;4992763;28;20185;-75
2021/05/17 07:20:26;;;;;;;2.07;0.50;;;18.20;99.90;;;;;;4993325;28;20210;-75
2021/05/17 07:25:36;;;;;;;1.67;0.50;;;18.10;99.90;;;;;;4992715;28;20610;-75
2021/05/17 07:28:02;;;;;;;2.07;0.50;;;18.10;99.90;;;;;;4992125;28;20620;-75
2021/05/17 07:30:28;;;;;;;1.80;0.50;;;18.00;99.90;;;;;;4992303;28;20229;-74
2021/05/17 07:32:53;;;;;;;1.57;0.50;;;18.00;99.90;;;;;;4978789;28;20658;-74
2021/05/17 07:35:19;;;;;;;4.27;0.53;;;17.90;99.90;;;;;;4995864;28;20577;-74
2021/05/17 07:37:46;;;;;;;2.00;0.57;;;18.00;99.90;;;;;;4989770;28;20178;-74
2021/05/17 07:40:13;;;;;;;1.97;0.43;;;18.00;99.90;;;;;;4957370;28;20180;-75
2021/05/17 07:42:38;;;;;;;4.70;0.50;;;18.10;99.90;;;;;;4975648;28;20987;-75
2021/05/17 07:45:05;;;;;;;1.10;0.40;;;18.30;99.90;;;;;;4976356;28;20567;-75
2021/05/17 07:47:31;;;;;;;2.00;0.50;;;18.50;99.90;;;;;;4977438;28;20321;-77
2021/05/17 07:49:56;;;;;;;1.53;0.40;;;18.90;99.90;;;;;;4956514;28;20625;-77
2021/05/17 07:52:22;;;;;;;1.10;0.40;;;19.50;99.90;;;;;;4955968;28;20167;-77
2021/05/17 07:54:48;;;;;;;1.00;0.40;;;20.10;99.90;;;;;;4955500;28;20168;-77
2021/05/17 07:57:15;;;;;;;1.17;0.40;;;20.50;99.90;;;;;;4955043;28;20207;-77
2021/05/17 07:59:41;;;;;;;1.17;0.50;;;20.80;99.90;;;;;;4974205;28;20682;-77
2021/05/17 08:02:07;;;;;;;1.90;0.50;;;21.00;99.90;;;;;;4972706;28;21025;-77
2021/05/17 08:04:33;;;;;;;3.17;0.60;;;21.10;99.90;;;;;;4972690;28;20625;-77
2021/05/17 08:06:59;;;;;;;1.63;0.60;;;21.10;99.90;;;;;;4954909;28;20203;-76
2021/05/17 08:09:25;;;;;;;2.40;0.50;;;21.10;99.90;;;;;;4972801;28;21123;-77
2021/05/17 08:11:52;;;;;;;1.47;0.60;;;21.20;99.90;;;;;;4960352;28;20555;-76
2021/05/17 08:14:18;;;;;;;1.20;0.50;;;21.30;99.90;;;;;;4972745;28;20572;-76
2021/05/17 08:16:45;;;;;;;1.43;0.50;;;21.50;99.90;;;;;;4972057;28;20730;-76
2021/05/17 08:19:10;;;;;;;1.20;0.50;;;21.80;99.90;;;;;;4972583;28;20666;-77
2021/05/17 08:21:36;;;;;;;1.53;0.40;;;21.80;99.90;;;;;;4955086;28;20707;-77
2021/05/17 08:24:03;;;;;;;1.23;0.40;;;21.80;99.90;;;;;;4955172;28;20225;-77
2021/05/17 08:26:28;;;;;;;1.10;0.50;;;21.60;99.90;;;;;;4954685;28;20561;-77
2021/05/17 08:28:54;;;;;;;1.27;0.50;;;21.50;99.90;;;;;;4954789;28;20578;-77
2021/05/17 08:31:22;;;;;;;2.73;0.53;;;21.20;99.90;;;;;;4972204;28;20195;-77
2021/05/17 08:33:49;;;;;;;1.57;0.60;;;20.90;99.90;;;;;;4954897;28;20579;-77
2021/05/17 08:36:15;;;;;;;1.20;0.43;;;20.70;99.90;;;;;;4972130;28;20595;-77
2021/05/17 08:38:41;;;;;;;4.90;0.70;;;20.40;99.90;;;;;;4982576;28;20609;-77
2021/05/17 08:41:08;;;;;;;1.63;0.50;;;20.10;99.90;;;;;;4983843;28;21008;-77
2021/05/17 08:43:37;;;;;;;2.30;0.50;;;19.90;99.90;;;;;;4952217;28;20594;-77
2021/05/17 08:46:03;;;;;;;2.50;0.43;;;19.60;99.90;;;;;;4957681;28;20714;-76
2021/05/17 08:48:29;;;;;;;1.00;0.40;;;19.40;99.90;;;;;;4959959;28;21023;-76
2021/05/17 08:50:55;;;;;;;2.07;0.50;;;19.20;99.90;;;;;;4954674;28;20579;-76
2021/05/17 08:53:21;;;;;;;1.10;0.40;;;19.10;99.90;;;;;;4954890;28;20246;-77
2021/05/17 08:55:47;;;;;;;4.73;0.50;;;18.90;99.90;;;;;;4971847;28;20697;-76
2021/05/17 08:58:12;;;;;;;1.30;0.50;;;18.80;99.90;;;;;;4953820;28;20184;-77
2021/05/17 09:00:39;;;;;;;2.20;0.40;;;18.70;99.90;;;;;;4971907;28;20575;-77
2021/05/17 09:03:05;;;;;;;1.60;0.57;;;18.60;99.90;;;;;;4972269;28;20635;-76
2021/05/17 09:05:33;;;;;;;1.07;0.40;;;18.50;99.90;;;;;;4973846;28;20678;-77
2021/05/17 09:08:02;;;;;;;2.00;0.50;;;18.40;99.90;;;;;;4975557;28;20621;-77
2021/05/17 09:10:34;;;;;;;2.20;0.50;;;18.30;99.90;;;;;;4942385;28;20973;-76
2021/05/17 09:13:10;;;;;;;1.60;0.43;;;18.30;99.90;;;;;;4975702;28;21196;-76
2021/05/17 09:15:39;;;;;;;1.00;0.47;;;18.40;99.90;;;;;;4975271;28;20602;-76
2021/05/17 09:18:10;;;;;;;2.07;0.60;;;18.60;99.90;;;;;;4975313;28;20611;-77
2021/05/17 09:20:37;;;;;;;1.53;0.53;;;18.80;99.90;;;;;;4975530;28;20585;-77
2021/05/17 09:23:31;;;;;;;1.50;0.60;;;19.20;99.90;;;;;;4975941;28;20574;-77
2021/05/17 09:26:11;;;;;;;1.10;0.40;;;19.70;99.90;;;;;;4980369;28;20730;-78
2021/05/17 09:28:41;;;;;;;1.10;0.47;;;20.90;99.90;;;;;;4957733;28;20630;-77
2021/05/17 09:31:12;;;;;;;1.30;0.50;;;22.10;99.90;;;;;;4957917;28;20615;-77
2021/05/17 09:33:44;;;;;;;1.20;0.50;;;23.40;99.90;;;;;;4975540;28;20572;-77
2021/05/17 09:36:31;;;;;;;3.70;0.60;;;24.70;99.90;;;;;;4975559;28;21217;-77
2021/05/17 09:38:58;;;;;;;1.43;0.50;;;26.10;99.90;;;;;;4956115;28;20585;-77
2021/05/17 09:41:24;;;;;;;3.93;0.50;;;27.20;99.90;;;;;;4981700;28;20574;-77
2021/05/17 09:43:50;;;;;;;1.27;0.50;;;28.10;99.90;;;;;;4967048;28;20570;-78
2021/05/17 09:46:16;;;;;;;3.33;0.47;;;28.80;99.90;;;;;;4998551;28;20937;-78
2021/05/17 09:48:49;;;;;;;2.33;0.60;;;29.30;98.30;;;;;;4997558;28;20633;-77
2021/05/17 09:51:16;;;;;;;1.30;0.60;;;29.70;95.00;;;;;;4997997;28;20619;-78
2021/05/17 09:53:47;;;;;;;2.10;0.70;;;29.90;93.80;;;;;;4977852;28;20608;-79
2021/05/17 09:56:28;;;;;;;1.20;0.50;;;30.10;92.80;;;;;;4978359;28;20621;-78
2021/05/17 09:59:09;;;;;;;1.20;0.50;;;30.50;91.90;;;;;;4968003;28;20585;-77
2021/05/17 10:01:35;;;;;;;1.70;0.70;;;30.80;89.20;;;;;;4983361;28;20714;-76
2021/05/17 10:04:02;;;;;;;2.03;0.70;;;30.90;87.90;;;;;;4978013;28;20577;-75
2021/05/17 10:06:28;;;;;;;1.90;0.60;;;30.90;84.50;;;;;;4994816;28;20187;-76
2021/05/17 10:08:56;;;;;;;1.20;0.50;;;30.80;82.40;;;;;;4994614;28;20658;-76
2021/05/17 10:11:24;;;;;;;1.20;0.50;;;30.80;81.10;;;;;;4994135;28;20576;-76
2021/05/17 10:13:52;;;;;;;1.27;0.50;;;30.70;78.70;;;;;;4976924;28;20578;-77
2021/05/17 10:16:20;;;;;;;1.00;0.40;;;30.50;77.10;;;;;;4975900;28;20601;-77
2021/05/17 10:18:47;;;;;;;1.63;0.80;;;30.30;75.40;;;;;;4976291;28;20692;-77
2021/05/17 10:21:18;;;;;;;2.23;0.60;;;30.20;75.10;;;;;;4994045;28;20575;-77
2021/05/17 10:23:46;;;;;;;1.40;0.50;;;29.90;72.60;;;;;;4994105;28;20578;-77
2021/05/17 10:26:23;;;;;;;1.30;0.50;;;29.40;71.50;;;;;;4976914;28;20610;-77
2021/05/17 10:28:55;;;;;;;1.53;0.53;;;28.80;68.70;;;;;;4995025;28;20676;-76
2021/05/17 10:31:23;;;;;;;1.20;0.50;;;28.10;68.60;;;;;;4977919;28;20570;-77
2021/05/17 10:34:01;;;;;;;1.00;0.40;;;27.40;68.20;;;;;;4994520;28;20566;-76
2021/05/17 10:36:47;;;;;;;1.77;0.60;;;26.70;68.10;;;;;;4960426;28;20664;-77
2021/05/17 10:39:14;;;;;;;1.20;0.50;;;25.80;67.80;;;;;;5001812;28;20577;-76
2021/05/17 10:48:09;;;;;;;1.10;0.40;;;23.30;69.90;;;;;;4993343;28;20629;-76
2021/05/17 10:50:35;;;;;;;1.00;0.40;;;22.20;69.80;;;;;;4994199;28;20594;-76
2021/05/17 10:53:01;;;;;;;1.37;0.50;;;21.40;71.60;;;;;;4992991;28;20581;-75
2021/05/17 10:55:29;;;;;;;1.40;0.70;;;20.80;73.80;;;;;;4975248;28;20578;-76
2021/05/17 11:00:26;;;;;;;1.40;0.50;;;20.10;77.80;;;;;;4976200;28;20613;-76
2021/05/17 11:03:13;;;;;;;2.23;0.50;;;19.70;78.80;;;;;;4937501;29;20591;-76
2021/05/17 11:05:41;;;;;;;1.87;0.50;;;19.40;81.20;;;;;;4954371;28;20991;-76
2021/05/17 11:08:09;;;;;;;1.40;0.67;;;19.20;82.00;;;;;;4954342;29;20619;-76
2021/05/17 11:10:37;;;;;;;1.70;0.50;;;19.00;85.00;;;;;;4954426;29;20564;-75
2021/05/17 11:13:03;;;;;;;1.00;0.43;;;19.30;90.30;;;;;;4954356;29;20679;-76
2021/05/17 11:15:42;;;;;;;1.10;0.50;;;19.70;92.00;;;;;;4941820;28;20576;-76
2021/05/17 11:18:07;;;;;;;1.00;0.40;;;20.20;92.60;;;;;;4954201;29;20314;-75
2021/05/17 11:23:22;;;;;;;3.83;2.20;;;21.00;91.50;;;;;;4954304;29;20521;-76
2021/05/17 11:28:42;;;;;;;3.97;1.80;;;21.50;90.80;;;;;;4983030;28;20699;-75
2021/05/17 11:31:50;;;;;;;1.30;0.70;;;21.60;89.30;;;;;;4968141;28;20646;-75
2021/05/17 11:34:14;;;;;;;2.60;1.40;;;21.60;88.70;;;;;;4972079;28;20607;-75
2021/05/17 11:37:09;;;;;;;1.90;1.00;;;21.30;87.60;;;;;;4966668;28;20621;-76
2021/05/17 11:39:35;;;;;;;2.77;1.20;;;21.00;88.20;;;;;;4974710;28;20570;-74
2021/05/17 11:42:05;;;;;;;1.80;0.83;;;20.60;88.00;;;;;;4952655;28;20653;-74
2021/05/17 11:44:59;;;;;;;1.77;0.70;;;20.30;88.40;;;;;;4960811;28;20590;-74
2021/05/17 11:47:31;;;;;;;3.60;0.60;;;19.90;88.80;;;;;;4955153;28;20733;-76
2021/05/17 11:49:58;;;;;;;1.63;0.50;;;19.60;89.90;;;;;;4972047;28;20690;-74
2021/05/17 11:52:28;;;;;;;2.67;0.70;;;19.30;90.20;;;;;;4959537;28;20575;-74
2021/05/17 11:55:05;;;;;;;1.60;0.60;;;19.10;90.60;;;;;;4973067;28;20575;-74
2021/05/17 11:57:42;;;;;;;1.40;1.00;;;18.80;90.90;;;;;;4971986;28;20697;-76
2021/05/17 12:00:14;;;;;;;2.83;1.20;;;18.60;91.30;;;;;;4963158;28;20631;-75
2021/05/17 12:02:53;;;;;;;2.70;0.90;;;18.50;91.80;;;;;;4953831;29;20575;-75
2021/05/17 12:05:20;;;;;;;3.07;0.90;;;18.40;92.50;;;;;;4953477;28;20604;-75
2021/05/17 12:07:49;;;;;;;1.33;0.70;;;18.30;92.70;;;;;;4951800;29;20659;-74
2021/05/17 12:10:17;;;;;;;1.73;0.50;;;18.20;92.90;;;;;;4936342;29;20695;-75
2021/05/17 12:12:43;;;;;;;2.50;0.70;;;18.10;93.50;;;;;;4953729;29;20557;-75
2021/05/17 12:15:15;;;;;;;3.70;1.90;;;18.00;93.60;;;;;;4953748;29;20566;-76
2021/05/17 12:17:41;;;;;;;6.10;2.40;;;17.90;94.00;;;;;;4953206;29;20572;-76
2021/05/17 12:20:10;;;;;;;4.53;2.07;;;17.80;94.30;;;;;;4952479;28;20634;-76
2021/05/17 12:22:41;;;;;;;2.00;1.10;;;17.80;94.80;;;;;;4952272;28;20540;-77
2021/05/17 12:25:09;;;;;;;2.37;0.83;;;17.80;95.60;;;;;;4952312;29;20592;-76
2021/05/17 12:27:36;;;;;;;1.77;0.70;;;17.90;96.10;;;;;;4953049;28;20683;-77
2021/05/17 12:30:28;;;;;;;5.77;0.80;;;17.90;96.40;;;;;;4959685;29;20568;-77
2021/05/17 12:33:01;;;;;;;3.80;1.70;;;17.90;96.90;;;;;;4950145;28;20698;-77
2021/05/17 12:35:31;;;;;;;7.80;2.60;;;18.00;96.60;;;;;;4951723;28;20579;-78
2021/05/17 12:38:02;;;;;;;4.30;2.70;;;18.00;96.70;;;;;;4952550;29;20576;-76
2021/05/17 12:40:27;;;;;;;2.20;1.30;;;18.10;97.20;;;;;;4956551;28;20932;-76
2021/05/17 12:43:20;;;;;;;2.57;1.20;;;18.20;97.80;;;;;;4955715;28;20571;-77
2021/05/17 12:45:50;;;;;;;1.50;1.10;;;18.40;98.70;;;;;;4956026;29;20635;-76
2021/05/17 12:48:26;;;;;;;2.17;0.97;;;18.60;98.70;;;;;;4955246;29;20627;-76
2021/05/17 12:50:55;;;;;;;1.60;0.70;;;18.70;98.40;;;;;;4956894;29;20671;-75
2021/05/17 12:53:29;;;;;;;3.33;1.40;;;18.80;98.00;;;;;;4955731;28;20595;-76
2021/05/17 12:55:58;;;;;;;3.87;2.13;;;18.80;97.90;;;;;;4939342;29;20631;-76
2021/05/17 12:58:26;;;;;;;7.13;4.67;;;18.80;97.90;;;;;;4956289;29;21001;-76
2021/05/17 13:00:54;;;;;;;4.97;2.27;;;18.80;98.20;;;;;;4939577;29;20575;-76
2021/05/17 13:03:46;;;;;;;1.50;0.83;;;18.80;98.10;;;;;;4956518;29;20607;-77
2021/05/17 13:11:00;;;;;;;1.53;0.80;;;18.60;98.40;;;;;;4889076;29;20669;-75
2021/05/17 13:13:46;;;;;;;1.70;0.70;;;18.40;98.60;;;;;;4884753;29;20638;-75
2021/05/17 13:16:20;;;;;;;2.00;0.83;;;18.30;99.00;;;;;;4938304;29;21052;-74
2021/05/17 13:19:10;;;;;;;1.90;0.83;;;18.10;99.10;;;;;;4955124;28;20576;-76
2021/05/17 13:32:13;;;;;;;1.90;1.10;;;18.30;99.90;;;;;;4956302;29;20560;-76
2021/05/17 13:34:41;;;;;;;2.57;0.90;;;18.50;99.90;;;;;;4954910;28;20918;-76
2021/05/17 13:37:07;;;;;;;2.93;0.90;;;18.60;99.90;;;;;;4955840;28;20683;-75
2021/05/17 13:39:32;;;;;;;2.00;1.00;;;18.80;99.90;;;;;;4954596;29;20671;-76
2021/05/17 13:41:58;;;;;;;1.47;0.70;;;19.00;99.90;;;;;;4954738;28;20177;-75
2021/05/17 13:44:24;;;;;;;2.60;1.30;;;19.10;99.90;;;;;;4955678;29;20590;-76
2021/05/17 13:46:53;;;;;;;3.07;1.10;;;19.10;99.90;;;;;;4954082;29;20263;-75
2021/05/17 13:49:19;;;;;;;2.80;1.00;;;19.00;99.90;;;;;;4955794;29;20195;-76